Time;durP1;ratioP1;P1;durP2;ratioP2;P2;SDS_P1;SDS_P2;PMS_P1;PMS_P2;Temp;Humidity;BMP_temperature;BMP_pressure;BME280_temperature;BME280_humidity;BME280_pressure;Samples;Min_cycle;Max_cycle;Signal;HPM_P1;HPM_P2
2023/12/09 00:01:14;;;;;;;36.00;20.88;;;;;;;;;;2074879;28;20496;-75
2023/12/09 00:02:33;;;;;;;34.25;20.40;;;;;;;;;;2075081;28;20038;-75
2023/12/09 00:03:52;;;;;;;37.63;21.95;;;;;;;;;;2063132;28;20026;-75
2023/12/09 00:05:11;;;;;;;39.13;22.55;;;;;;;;;;2058653;28;20026;-75
2023/12/09 00:06:30;;;;;;;37.35;22.38;;;;;;;;;;2067369;28;20054;-76
2023/12/09 00:07:48;;;;;;;35.10;21.55;;;;;;;;;;2079385;28;20021;-76
2023/12/09 00:09:08;;;;;;;39.72;22.00;;;;;;;;;;2073953;28;20494;-75
2023/12/09 00:10:27;;;;;;;38.35;22.50;;;;;;;;;;2078478;28;20522;-75
2023/12/09 00:11:46;;;;;;;40.28;21.33;;;;;;;;;;2073793;28;20026;-75
2023/12/09 00:13:05;;;;;;;39.13;23.20;;;;;;;;;;2072173;28;20038;-76
2023/12/09 00:14:24;;;;;;;35.33;20.92;;;;;;;;;;2070857;28;20029;-76
2023/12/09 00:15:44;;;;;;;38.20;22.10;;;;;;;;;;2068649;28;20494;-76
2023/12/09 00:17:03;;;;;;;42.78;22.38;;;;;;;;;;2070348;28;20037;-76
2023/12/09 00:18:22;;;;;;;41.42;22.17;;;;;;;;;;2077065;28;20026;-75
2023/12/09 00:19:44;;;;;;;39.20;21.60;;;;;;;;;;2078042;28;20100;-76
2023/12/09 00:21:04;;;;;;;28.02;17.00;;;;;;;;;;2073358;28;20030;-75
2023/12/09 00:22:23;;;;;;;36.42;21.88;;;;;;;;;;2070819;28;20456;-76
2023/12/09 00:23:42;;;;;;;41.00;23.00;;;;;;;;;;2078064;28;20025;-75
2023/12/09 00:25:01;;;;;;;37.80;21.67;;;;;;;;;;2074292;28;20025;-75
2023/12/09 00:26:19;;;;;;;35.15;21.08;;;;;;;;;;2070905;28;20522;-75
2023/12/09 00:27:38;;;;;;;41.10;21.40;;;;;;;;;;2070572;28;20449;-75
2023/12/09 00:28:58;;;;;;;38.35;21.83;;;;;;;;;;2071489;28;20041;-76
2023/12/09 00:30:17;;;;;;;37.13;20.15;;;;;;;;;;2070891;28;20454;-75
2023/12/09 00:31:36;;;;;;;35.55;21.35;;;;;;;;;;2075284;28;20038;-76
2023/12/09 00:32:54;;;;;;;39.78;21.92;;;;;;;;;;2077653;28;20034;-75
2023/12/09 00:34:13;;;;;;;43.13;21.45;;;;;;;;;;2074273;28;20029;-77
2023/12/09 00:35:33;;;;;;;38.47;22.13;;;;;;;;;;2079043;28;20021;-75
2023/12/09 00:36:51;;;;;;;40.08;22.92;;;;;;;;;;2078887;28;20026;-75
2023/12/09 00:38:10;;;;;;;36.58;21.50;;;;;;;;;;2073197;28;20069;-76
2023/12/09 00:39:29;;;;;;;34.33;20.92;;;;;;;;;;2076236;28;20034;-76
2023/12/09 00:40:48;;;;;;;43.17;21.58;;;;;;;;;;2079768;28;20051;-76
2023/12/09 00:42:07;;;;;;;39.42;22.23;;;;;;;;;;2075392;28;20033;-76
2023/12/09 00:43:26;;;;;;;36.17;21.13;;;;;;;;;;2066305;28;20019;-75
2023/12/09 00:44:45;;;;;;;37.92;21.17;;;;;;;;;;2076275;28;20483;-75
2023/12/09 00:46:05;;;;;;;36.20;20.95;;;;;;;;;;2079177;28;20045;-75
2023/12/09 00:47:24;;;;;;;38.65;21.55;;;;;;;;;;2080235;28;20037;-76
2023/12/09 00:48:43;;;;;;;36.83;21.02;;;;;;;;;;2071354;28;20101;-75
2023/12/09 00:50:02;;;;;;;38.05;19.92;;;;;;;;;;2068544;28;20492;-75
2023/12/09 00:51:21;;;;;;;34.83;20.40;;;;;;;;;;2077675;28;20026;-75
2023/12/09 00:52:40;;;;;;;39.30;21.33;;;;;;;;;;2080469;28;20034;-75
2023/12/09 00:54:00;;;;;;;36.78;20.95;;;;;;;;;;2078515;28;20488;-75
2023/12/09 00:55:19;;;;;;;40.72;22.15;;;;;;;;;;2078309;28;20036;-75
2023/12/09 00:56:38;;;;;;;40.53;21.35;;;;;;;;;;2068174;28;20030;-76
2023/12/09 00:57:57;;;;;;;35.83;20.95;;;;;;;;;;2069171;28;20030;-75
2023/12/09 00:59:16;;;;;;;34.08;20.98;;;;;;;;;;2077231;28;20025;-76
2023/12/09 01:00:35;;;;;;;37.80;20.88;;;;;;;;;;2079415;28;20902;-76
2023/12/09 01:01:54;;;;;;;39.65;20.80;;;;;;;;;;2071674;28;20018;-76
2023/12/09 01:03:12;;;;;;;42.17;22.55;;;;;;;;;;2072423;28;20034;-76
2023/12/09 01:04:31;;;;;;;40.10;21.58;;;;;;;;;;2068432;28;20109;-76
2023/12/09 01:05:50;;;;;;;40.60;21.80;;;;;;;;;;2078049;28;20029;-75
2023/12/09 01:07:09;;;;;;;36.83;20.45;;;;;;;;;;2072395;28;20038;-76
2023/12/09 01:08:29;;;;;;;39.88;21.08;;;;;;;;;;2072001;28;20046;-75
2023/12/09 01:09:49;;;;;;;36.65;20.25;;;;;;;;;;2077730;28;20033;-76
2023/12/09 01:11:08;;;;;;;36.17;20.40;;;;;;;;;;2072940;28;20038;-75
2023/12/09 01:12:26;;;;;;;36.92;20.65;;;;;;;;;;2078182;28;20037;-75
2023/12/09 01:13:45;;;;;;;36.47;20.13;;;;;;;;;;2078902;28;20030;-74
2023/12/09 01:15:05;;;;;;;40.72;21.38;;;;;;;;;;2079726;28;20387;-76
2023/12/09 01:16:24;;;;;;;34.17;19.65;;;;;;;;;;2075287;28;20026;-76
2023/12/09 01:17:43;;;;;;;34.88;21.05;;;;;;;;;;2068557;28;20567;-76
2023/12/09 01:19:02;;;;;;;34.70;20.70;;;;;;;;;;2076996;28;20045;-76
2023/12/09 01:20:21;;;;;;;36.13;21.00;;;;;;;;;;2079011;28;20021;-76
2023/12/09 01:21:42;;;;;;;37.13;20.48;;;;;;;;;;2073700;28;20014;-75
2023/12/09 01:23:03;;;;;;;36.10;20.13;;;;;;;;;;2070874;28;20026;-75
2023/12/09 01:24:22;;;;;;;37.17;19.83;;;;;;;;;;2077119;28;20018;-76
2023/12/09 01:25:41;;;;;;;33.13;20.35;;;;;;;;;;2072572;28;20426;-75
2023/12/09 01:27:00;;;;;;;40.00;20.25;;;;;;;;;;2076668;28;20479;-75
2023/12/09 01:28:19;;;;;;;38.10;21.17;;;;;;;;;;2074356;28;20228;-75
2023/12/09 01:29:39;;;;;;;34.80;19.95;;;;;;;;;;2072308;28;20058;-76
2023/12/09 01:30:58;;;;;;;38.45;21.17;;;;;;;;;;2075722;28;20541;-75
2023/12/09 01:32:17;;;;;;;36.45;20.55;;;;;;;;;;2074508;28;20029;-75
2023/12/09 01:33:37;;;;;;;36.70;21.38;;;;;;;;;;2071087;28;20546;-75
2023/12/09 01:34:57;;;;;;;32.67;19.95;;;;;;;;;;2070647;28;20037;-75
2023/12/09 01:36:16;;;;;;;38.13;20.25;;;;;;;;;;2078454;28;20022;-75
2023/12/09 01:37:34;;;;;;;34.22;19.08;;;;;;;;;;2073918;28;20046;-75
2023/12/09 01:38:54;;;;;;;36.50;20.63;;;;;;;;;;2078128;28;20033;-76
2023/12/09 01:40:13;;;;;;;36.30;19.40;;;;;;;;;;2075822;28;20026;-76
2023/12/09 01:41:32;;;;;;;38.58;21.17;;;;;;;;;;2072707;28;20108;-76
2023/12/09 01:42:52;;;;;;;33.45;18.83;;;;;;;;;;2071727;28;20022;-76
2023/12/09 01:44:11;;;;;;;35.90;20.02;;;;;;;;;;2075246;28;20030;-76
2023/12/09 01:45:30;;;;;;;38.72;19.83;;;;;;;;;;2073087;28;20030;-76
2023/12/09 01:46:49;;;;;;;37.00;19.95;;;;;;;;;;2072439;28;20166;-76
2023/12/09 01:48:09;;;;;;;34.40;19.55;;;;;;;;;;2075955;28;20017;-75
2023/12/09 01:49:28;;;;;;;34.63;19.65;;;;;;;;;;2067913;28;20507;-76
2023/12/09 01:50:47;;;;;;;34.47;20.20;;;;;;;;;;2073876;28;20045;-75
2023/12/09 01:52:07;;;;;;;34.60;20.25;;;;;;;;;;2075199;28;20495;-76
2023/12/09 01:53:27;;;;;;;31.88;19.52;;;;;;;;;;2071271;28;20126;-76
2023/12/09 01:54:46;;;;;;;33.42;19.65;;;;;;;;;;2077041;28;20021;-76
2023/12/09 01:56:06;;;;;;;34.30;19.63;;;;;;;;;;2081874;28;20025;-75
2023/12/09 01:57:25;;;;;;;34.60;20.00;;;;;;;;;;2069963;28;20487;-75
2023/12/09 01:58:45;;;;;;;39.58;19.77;;;;;;;;;;2070209;28;20025;-75
2023/12/09 02:00:04;;;;;;;33.28;18.50;;;;;;;;;;2070208;28;20108;-75
2023/12/09 02:01:23;;;;;;;32.75;19.27;;;;;;;;;;2071347;28;20498;-75
2023/12/09 02:02:44;;;;;;;30.88;17.98;;;;;;;;;;2071592;28;20030;-75
2023/12/09 02:04:04;;;;;;;32.35;19.25;;;;;;;;;;2077577;28;20030;-75
2023/12/09 02:05:23;;;;;;;30.58;18.55;;;;;;;;;;2073779;28;20022;-75
2023/12/09 02:06:42;;;;;;;34.40;20.27;;;;;;;;;;2077003;28;20018;-75
2023/12/09 02:08:01;;;;;;;27.33;18.10;;;;;;;;;;2077560;28;20033;-75
2023/12/09 02:09:22;;;;;;;31.30;18.55;;;;;;;;;;2079152;28;20030;-76
2023/12/09 02:10:42;;;;;;;33.58;19.17;;;;;;;;;;2074232;28;20026;-74
2023/12/09 02:12:30;;;;;;;31.67;18.45;;;;;;;;;;2077058;28;20025;-75
2023/12/09 02:14:10;;;;;;;29.95;16.58;;;;;;;;;;2051397;28;20035;-75
2023/12/09 02:15:30;;;;;;;27.83;16.88;;;;;;;;;;2075701;28;20025;-75
2023/12/09 02:16:58;;;;;;;30.88;17.48;;;;;;;;;;2082639;28;20033;-75
2023/12/09 02:18:17;;;;;;;30.90;16.98;;;;;;;;;;2081186;28;20569;-75
2023/12/09 02:19:36;;;;;;;29.48;17.65;;;;;;;;;;2083999;28;20506;-75
2023/12/09 02:20:58;;;;;;;26.83;17.05;;;;;;;;;;2082106;28;20018;-74
2023/12/09 02:22:17;;;;;;;28.02;16.45;;;;;;;;;;2076002;28;20034;-74
2023/12/09 02:23:35;;;;;;;28.75;17.15;;;;;;;;;;2070131;28;20034;-74
2023/12/09 02:24:55;;;;;;;25.90;17.05;;;;;;;;;;2078337;28;20116;-75
2023/12/09 02:26:18;;;;;;;28.05;17.55;;;;;;;;;;2075077;28;20030;-75
2023/12/09 02:27:48;;;;;;;26.83;16.88;;;;;;;;;;2074734;28;20511;-75
2023/12/09 02:29:07;;;;;;;25.75;16.35;;;;;;;;;;2079371;28;20127;-75
2023/12/09 02:30:45;;;;;;;27.48;16.75;;;;;;;;;;2074413;28;21226;-75
2023/12/09 02:32:05;;;;;;;30.10;17.33;;;;;;;;;;2075100;28;20162;-75
2023/12/09 02:33:24;;;;;;;28.58;16.67;;;;;;;;;;2072723;28;20026;-75
2023/12/09 02:34:44;;;;;;;27.23;15.75;;;;;;;;;;2080368;28;20041;-75
2023/12/09 02:36:03;;;;;;;24.85;15.70;;;;;;;;;;2070387;28;20511;-76
2023/12/09 02:37:23;;;;;;;26.80;15.98;;;;;;;;;;2078338;28;20394;-75
2023/12/09 02:38:42;;;;;;;25.83;15.93;;;;;;;;;;2082230;28;20064;-75
2023/12/09 02:40:02;;;;;;;27.83;17.08;;;;;;;;;;2078030;28;20057;-74
2023/12/09 02:41:25;;;;;;;26.70;16.45;;;;;;;;;;2078581;28;20029;-76
2023/12/09 02:42:45;;;;;;;28.73;16.08;;;;;;;;;;2075437;28;20025;-75
2023/12/09 02:44:04;;;;;;;28.90;16.77;;;;;;;;;;2065614;28;20399;-76
2023/12/09 02:45:23;;;;;;;26.10;16.17;;;;;;;;;;2070892;28;20033;-76
2023/12/09 02:46:42;;;;;;;30.98;16.48;;;;;;;;;;2070963;28;20395;-75
2023/12/09 02:48:01;;;;;;;32.00;16.10;;;;;;;;;;2077616;28;20371;-77
2023/12/09 02:49:19;;;;;;;25.45;16.77;;;;;;;;;;2080753;28;20386;-76
2023/12/09 02:50:39;;;;;;;27.02;16.60;;;;;;;;;;2081422;28;20038;-76
2023/12/09 02:51:58;;;;;;;26.63;16.45;;;;;;;;;;2074433;28;20034;-76
2023/12/09 02:53:17;;;;;;;25.33;15.90;;;;;;;;;;2072670;28;20026;-75
2023/12/09 02:54:36;;;;;;;28.45;17.42;;;;;;;;;;2078279;28;20041;-76
2023/12/09 02:55:55;;;;;;;26.52;15.77;;;;;;;;;;2082241;28;20104;-75
2023/12/09 02:57:14;;;;;;;22.77;15.00;;;;;;;;;;2078734;28;20104;-76
2023/12/09 02:58:33;;;;;;;26.75;15.68;;;;;;;;;;2074157;28;20042;-76
2023/12/09 02:59:52;;;;;;;23.33;15.55;;;;;;;;;;2079810;28;20026;-75
2023/12/09 03:01:11;;;;;;;27.23;14.80;;;;;;;;;;2077823;28;20030;-75
2023/12/09 03:02:30;;;;;;;24.15;14.85;;;;;;;;;;2077557;28;20037;-74
2023/12/09 03:03:49;;;;;;;24.55;14.93;;;;;;;;;;2075938;28;20029;-76
2023/12/09 03:05:08;;;;;;;23.30;14.63;;;;;;;;;;2072987;28;20034;-76
2023/12/09 03:06:27;;;;;;;25.35;15.70;;;;;;;;;;2081154;28;20037;-75
2023/12/09 03:07:46;;;;;;;27.98;15.90;;;;;;;;;;2082203;28;20033;-75
2023/12/09 03:09:05;;;;;;;22.63;13.68;;;;;;;;;;2081031;28;20034;-75
2023/12/09 03:10:24;;;;;;;23.08;14.63;;;;;;;;;;2080349;28;20029;-75
2023/12/09 03:11:43;;;;;;;22.83;14.30;;;;;;;;;;2077500;28;20112;-75
2023/12/09 03:13:02;;;;;;;22.75;14.10;;;;;;;;;;2066363;28;20038;-76
2023/12/09 03:14:22;;;;;;;23.23;15.15;;;;;;;;;;2070356;28;20120;-75
2023/12/09 03:15:41;;;;;;;20.52;14.10;;;;;;;;;;2072203;28;20442;-76
2023/12/09 03:17:00;;;;;;;21.85;14.27;;;;;;;;;;2080101;28;20037;-75
2023/12/09 03:18:19;;;;;;;21.20;13.48;;;;;;;;;;2080006;28;20033;-75
2023/12/09 03:19:38;;;;;;;19.33;13.27;;;;;;;;;;2072221;28;20026;-75
2023/12/09 03:20:57;;;;;;;19.83;13.13;;;;;;;;;;2072627;28;20025;-75
2023/12/09 03:22:16;;;;;;;22.33;14.32;;;;;;;;;;2072262;28;20022;-75
2023/12/09 03:23:35;;;;;;;21.23;13.98;;;;;;;;;;2072343;28;20021;-75
2023/12/09 03:24:54;;;;;;;19.83;14.27;;;;;;;;;;2067069;28;20026;-75
2023/12/09 03:26:13;;;;;;;18.33;13.48;;;;;;;;;;2074875;28;20041;-76
2023/12/09 03:27:33;;;;;;;22.02;14.30;;;;;;;;;;2080768;28;20029;-76
2023/12/09 03:28:52;;;;;;;18.17;12.60;;;;;;;;;;2073407;28;20051;-75
2023/12/09 03:30:10;;;;;;;18.55;13.35;;;;;;;;;;2077755;28;20113;-76
2023/12/09 03:31:29;;;;;;;22.35;14.05;;;;;;;;;;2072562;28;20038;-76
2023/12/09 03:32:48;;;;;;;19.33;13.43;;;;;;;;;;2074487;28;20549;-75
2023/12/09 03:34:07;;;;;;;19.23;13.15;;;;;;;;;;2075269;28;20511;-75
2023/12/09 03:35:26;;;;;;;17.83;12.15;;;;;;;;;;2079233;28;20046;-75
2023/12/09 03:36:46;;;;;;;18.85;13.38;;;;;;;;;;2080714;28;20033;-76
2023/12/09 03:38:04;;;;;;;19.05;12.77;;;;;;;;;;2081690;28;20045;-74
2023/12/09 03:39:23;;;;;;;18.33;12.63;;;;;;;;;;2080162;28;20459;-76
2023/12/09 03:40:42;;;;;;;19.00;12.95;;;;;;;;;;2078964;28;20112;-75
2023/12/09 03:42:01;;;;;;;17.77;12.25;;;;;;;;;;2072934;28;20034;-75
2023/12/09 03:43:20;;;;;;;18.30;11.65;;;;;;;;;;2070672;28;20498;-76
2023/12/09 03:44:39;;;;;;;15.80;11.85;;;;;;;;;;2079385;28;20037;-76
2023/12/09 03:45:59;;;;;;;16.50;11.48;;;;;;;;;;2079616;28;21008;-74
2023/12/09 03:47:18;;;;;;;18.35;12.02;;;;;;;;;;2078191;28;20033;-75
2023/12/09 03:48:37;;;;;;;18.63;11.60;;;;;;;;;;2075224;28;20510;-75
2023/12/09 03:49:55;;;;;;;20.08;12.40;;;;;;;;;;2075098;28;20044;-75
2023/12/09 03:51:15;;;;;;;17.17;11.18;;;;;;;;;;2072237;28;20034;-75
2023/12/09 03:52:33;;;;;;;17.48;11.73;;;;;;;;;;2074049;28;20037;-75
2023/12/09 03:53:52;;;;;;;17.65;12.02;;;;;;;;;;2071746;28;20065;-75
2023/12/09 03:55:13;;;;;;;15.00;11.32;;;;;;;;;;2076519;28;20495;-75
2023/12/09 03:56:32;;;;;;;21.38;12.55;;;;;;;;;;2075386;28;20503;-75
2023/12/09 03:57:55;;;;;;;17.38;12.18;;;;;;;;;;2076339;28;20033;-74
2023/12/09 03:59:14;;;;;;;19.88;12.35;;;;;;;;;;2079435;28;20061;-74
2023/12/09 04:00:33;;;;;;;17.60;12.23;;;;;;;;;;2072945;28;20499;-75
2023/12/09 04:01:52;;;;;;;19.30;12.88;;;;;;;;;;2070679;28;20030;-75
2023/12/09 04:03:11;;;;;;;16.67;11.88;;;;;;;;;;2079241;28;20061;-75
2023/12/09 04:04:30;;;;;;;17.15;11.90;;;;;;;;;;2073813;28;20025;-74
2023/12/09 04:05:50;;;;;;;16.75;12.57;;;;;;;;;;2072394;28;20025;-76
2023/12/09 04:07:09;;;;;;;19.02;12.27;;;;;;;;;;2075144;28;20061;-75
2023/12/09 04:08:27;;;;;;;14.55;10.77;;;;;;;;;;2070201;28;20034;-75
2023/12/09 04:09:46;;;;;;;16.00;11.32;;;;;;;;;;2077943;28;20061;-74
2023/12/09 04:11:05;;;;;;;16.88;12.05;;;;;;;;;;2074900;28;20050;-75
2023/12/09 04:12:24;;;;;;;17.80;11.55;;;;;;;;;;2078628;28;20059;-75
2023/12/09 04:13:43;;;;;;;17.05;11.32;;;;;;;;;;2079532;28;20124;-75
2023/12/09 04:15:03;;;;;;;19.10;11.25;;;;;;;;;;2070623;28;20053;-75
2023/12/09 04:16:22;;;;;;;15.15;10.88;;;;;;;;;;2073621;28;20466;-75
2023/12/09 04:17:41;;;;;;;14.77;11.57;;;;;;;;;;2082442;28;20108;-75
2023/12/09 04:19:00;;;;;;;15.80;11.88;;;;;;;;;;2081039;28;20045;-75
2023/12/09 04:20:19;;;;;;;15.68;11.48;;;;;;;;;;2073504;28;20025;-77
2023/12/09 04:21:38;;;;;;;16.05;10.65;;;;;;;;;;2069608;28;20078;-74
2023/12/09 04:22:57;;;;;;;16.05;10.25;;;;;;;;;;2072008;28;20038;-75
2023/12/09 04:24:17;;;;;;;14.93;10.82;;;;;;;;;;2066591;28;20034;-75
2023/12/09 04:25:36;;;;;;;16.30;10.93;;;;;;;;;;2067972;28;20021;-75
2023/12/09 04:26:54;;;;;;;18.02;11.88;;;;;;;;;;2068070;28;20066;-76
2023/12/09 04:28:13;;;;;;;15.82;10.98;;;;;;;;;;2077596;28;20045;-76
2023/12/09 04:29:32;;;;;;;17.67;11.75;;;;;;;;;;2076898;28;20022;-77
2023/12/09 04:30:51;;;;;;;14.75;11.25;;;;;;;;;;2078889;28;20025;-75
2023/12/09 04:32:10;;;;;;;14.60;11.10;;;;;;;;;;2078838;28;20030;-75
2023/12/09 04:33:29;;;;;;;15.75;10.90;;;;;;;;;;2079708;28;20108;-75
2023/12/09 04:34:49;;;;;;;15.32;11.55;;;;;;;;;;2080988;28;20034;-76
2023/12/09 04:36:08;;;;;;;16.10;11.07;;;;;;;;;;2075765;28;20030;-76
2023/12/09 04:37:27;;;;;;;17.60;12.63;;;;;;;;;;2076640;28;20104;-75
2023/12/09 04:38:46;;;;;;;17.20;12.30;;;;;;;;;;2070046;28;20034;-75
2023/12/09 04:40:08;;;;;;;17.05;11.77;;;;;;;;;;2075272;28;20042;-76
2023/12/09 04:41:27;;;;;;;12.55;8.95;;;;;;;;;;2074343;28;20099;-75
2023/12/09 04:42:46;;;;;;;16.42;11.93;;;;;;;;;;2071166;28;20123;-74
2023/12/09 04:44:05;;;;;;;18.17;11.32;;;;;;;;;;2078674;28;20017;-75
2023/12/09 04:45:24;;;;;;;17.40;11.70;;;;;;;;;;2074331;28;20030;-76
2023/12/09 04:46:43;;;;;;;16.92;11.90;;;;;;;;;;2070265;28;20034;-77
2023/12/09 04:48:03;;;;;;;15.20;11.43;;;;;;;;;;2069843;28;20507;-75
2023/12/09 04:49:22;;;;;;;16.35;11.48;;;;;;;;;;2078687;28;20025;-75
2023/12/09 04:50:41;;;;;;;17.73;12.52;;;;;;;;;;2079534;28;20041;-75
2023/12/09 04:52:00;;;;;;;20.25;11.43;;;;;;;;;;2074650;28;20034;-75
2023/12/09 04:53:20;;;;;;;17.27;11.48;;;;;;;;;;2076323;28;20037;-75
2023/12/09 04:54:39;;;;;;;15.70;12.15;;;;;;;;;;2080209;28;20026;-75
2023/12/09 04:55:58;;;;;;;15.98;11.57;;;;;;;;;;2080323;28;20038;-75
2023/12/09 04:57:17;;;;;;;16.63;11.70;;;;;;;;;;2073547;28;20033;-75
2023/12/09 04:58:36;;;;;;;17.45;11.48;;;;;;;;;;2076205;28;20029;-75
2023/12/09 04:59:55;;;;;;;15.88;11.68;;;;;;;;;;2079834;28;20029;-75
2023/12/09 05:01:14;;;;;;;18.63;12.70;;;;;;;;;;2073273;28;20022;-76
2023/12/09 05:02:34;;;;;;;15.55;11.90;;;;;;;;;;2070981;28;20415;-76
2023/12/09 05:03:52;;;;;;;17.05;12.07;;;;;;;;;;2077137;28;20026;-75
2023/12/09 05:05:11;;;;;;;14.10;10.95;;;;;;;;;;2078671;28;20071;-75
2023/12/09 05:06:30;;;;;;;16.80;12.02;;;;;;;;;;2079921;28;20053;-74
2023/12/09 05:07:49;;;;;;;19.98;12.55;;;;;;;;;;2081345;28;20494;-75
2023/12/09 05:09:08;;;;;;;16.75;12.45;;;;;;;;;;2080783;28;20123;-75
2023/12/09 05:10:29;;;;;;;16.58;11.65;;;;;;;;;;2075342;28;20112;-75
2023/12/09 05:11:48;;;;;;;15.35;11.20;;;;;;;;;;2072612;28;20033;-75
2023/12/09 05:13:07;;;;;;;17.45;12.18;;;;;;;;;;2075590;28;20477;-74
2023/12/09 05:14:26;;;;;;;17.58;11.60;;;;;;;;;;2080610;28;20033;-75
2023/12/09 05:15:45;;;;;;;15.80;11.48;;;;;;;;;;2081252;28;20494;-75
2023/12/09 05:17:03;;;;;;;16.00;11.90;;;;;;;;;;2074702;28;20037;-75
2023/12/09 05:18:22;;;;;;;17.00;11.68;;;;;;;;;;2073626;28;20046;-75
2023/12/09 05:19:42;;;;;;;16.95;11.32;;;;;;;;;;2073491;28;20030;-75
2023/12/09 05:21:04;;;;;;;16.25;11.45;;;;;;;;;;2074398;28;20069;-75
2023/12/09 05:22:24;;;;;;;14.88;11.00;;;;;;;;;;2078679;28;20041;-76
2023/12/09 05:23:43;;;;;;;17.67;10.63;;;;;;;;;;2079929;28;20022;-75
2023/12/09 05:25:02;;;;;;;12.95;10.70;;;;;;;;;;2075001;28;20065;-75
2023/12/09 05:26:28;;;;;;;15.45;10.88;;;;;;;;;;2072655;28;20025;-75
2023/12/09 05:27:48;;;;;;;15.85;11.30;;;;;;;;;;2073697;28;20049;-75
2023/12/09 05:29:07;;;;;;;14.23;10.73;;;;;;;;;;2071745;28;20072;-75
2023/12/09 05:30:26;;;;;;;19.67;10.70;;;;;;;;;;2079851;28;20028;-75
2023/12/09 05:31:45;;;;;;;16.30;10.48;;;;;;;;;;2081998;28;20029;-75
2023/12/09 05:33:04;;;;;;;12.27;10.82;;;;;;;;;;2075167;28;20038;-75
2023/12/09 05:34:23;;;;;;;12.52;10.65;;;;;;;;;;2079227;28;20037;-75
2023/12/09 05:35:42;;;;;;;13.68;9.65;;;;;;;;;;2081689;28;20467;-75
2023/12/09 05:37:00;;;;;;;13.43;10.18;;;;;;;;;;2073927;28;20045;-75
2023/12/09 05:38:19;;;;;;;15.82;9.90;;;;;;;;;;2078975;28;20042;-75
2023/12/09 05:39:38;;;;;;;17.70;10.23;;;;;;;;;;2080905;28;20112;-74
2023/12/09 05:40:57;;;;;;;11.30;9.18;;;;;;;;;;2076081;28;20030;-76
2023/12/09 05:42:17;;;;;;;11.15;9.35;;;;;;;;;;2077823;28;20064;-75
2023/12/09 05:43:36;;;;;;;12.48;9.55;;;;;;;;;;2080218;28;20060;-75
2023/12/09 05:44:55;;;;;;;11.07;9.10;;;;;;;;;;2081091;28;20022;-75
2023/12/09 05:46:19;;;;;;;13.70;9.73;;;;;;;;;;2074621;28;21395;-74
2023/12/09 05:47:38;;;;;;;12.18;9.80;;;;;;;;;;2072424;28;20026;-75
2023/12/09 05:48:56;;;;;;;11.52;9.32;;;;;;;;;;2076706;28;20033;-75
2023/12/09 05:50:15;;;;;;;11.35;8.98;;;;;;;;;;2080226;28;20033;-74
2023/12/09 05:51:34;;;;;;;11.07;9.00;;;;;;;;;;2081885;28;20029;-75
2023/12/09 05:52:53;;;;;;;12.93;9.45;;;;;;;;;;2079923;28;20025;-74
2023/12/09 05:54:12;;;;;;;14.43;9.05;;;;;;;;;;2076929;28;20030;-74
2023/12/09 05:55:30;;;;;;;14.55;9.75;;;;;;;;;;2078248;28;20045;-73
2023/12/09 05:56:49;;;;;;;12.70;9.48;;;;;;;;;;2080498;28;20033;-74
2023/12/09 05:58:08;;;;;;;12.60;9.82;;;;;;;;;;2074786;28;20033;-76
2023/12/09 05:59:28;;;;;;;15.18;9.60;;;;;;;;;;2078805;28;20026;-74
2023/12/09 06:00:47;;;;;;;13.73;9.07;;;;;;;;;;2076484;28;20018;-74
2023/12/09 06:02:06;;;;;;;16.58;9.77;;;;;;;;;;2078486;28;20029;-73
2023/12/09 06:03:25;;;;;;;14.20;9.25;;;;;;;;;;2075636;28;20030;-73
2023/12/09 06:04:44;;;;;;;16.42;9.52;;;;;;;;;;2072453;28;20021;-74
2023/12/09 06:06:04;;;;;;;11.40;9.10;;;;;;;;;;2058917;28;20089;-75
2023/12/09 06:07:24;;;;;;;11.90;8.93;;;;;;;;;;2068563;28;22054;-74
2023/12/09 06:08:43;;;;;;;13.77;9.80;;;;;;;;;;2072799;28;20435;-73
2023/12/09 06:10:02;;;;;;;13.65;9.63;;;;;;;;;;2069094;28;20101;-77
2023/12/09 06:11:21;;;;;;;15.63;10.20;;;;;;;;;;2079317;28;20049;-74
2023/12/09 06:12:40;;;;;;;13.18;9.50;;;;;;;;;;2081594;28;20061;-74
2023/12/09 06:13:59;;;;;;;15.43;10.05;;;;;;;;;;2081391;28;20025;-76
2023/12/09 06:15:18;;;;;;;14.30;9.75;;;;;;;;;;2080482;28;20029;-74
2023/12/09 06:16:37;;;;;;;12.90;9.25;;;;;;;;;;2080804;28;20087;-74
2023/12/09 06:17:56;;;;;;;13.48;9.50;;;;;;;;;;2076749;28;20458;-74
2023/12/09 06:19:15;;;;;;;12.95;8.98;;;;;;;;;;2077468;28;20049;-75
2023/12/09 06:20:34;;;;;;;13.93;9.73;;;;;;;;;;2074301;28;20037;-74
2023/12/09 06:21:54;;;;;;;14.00;9.77;;;;;;;;;;2079369;28;20104;-74
2023/12/09 06:23:13;;;;;;;13.68;9.75;;;;;;;;;;2074216;28;20033;-74
2023/12/09 06:24:32;;;;;;;17.50;11.00;;;;;;;;;;2079199;28;20033;-74
2023/12/09 06:25:52;;;;;;;12.88;9.32;;;;;;;;;;2071888;28;20038;-75
2023/12/09 06:27:12;;;;;;;15.40;10.60;;;;;;;;;;2070407;28;20443;-76
2023/12/09 06:28:31;;;;;;;24.00;11.13;;;;;;;;;;2071746;28;20115;-77
2023/12/09 06:29:51;;;;;;;12.02;10.00;;;;;;;;;;2078308;28;20041;-75
2023/12/09 06:31:10;;;;;;;15.85;9.88;;;;;;;;;;2081206;28;20045;-74
2023/12/09 06:32:29;;;;;;;17.25;11.57;;;;;;;;;;2080344;28;20029;-73
2023/12/09 06:33:48;;;;;;;16.15;10.27;;;;;;;;;;2076981;28;20033;-73
2023/12/09 06:35:07;;;;;;;15.90;10.65;;;;;;;;;;2078315;28;20069;-74
2023/12/09 06:36:27;;;;;;;21.25;10.93;;;;;;;;;;2079625;28;20390;-74
2023/12/09 06:37:46;;;;;;;16.50;10.80;;;;;;;;;;2080307;28;20722;-76
2023/12/09 06:39:05;;;;;;;16.92;10.90;;;;;;;;;;2081721;28;20490;-73
2023/12/09 06:40:24;;;;;;;17.83;11.05;;;;;;;;;;2074364;28;20502;-75
2023/12/09 06:41:44;;;;;;;16.13;10.88;;;;;;;;;;2070531;28;20029;-75
2023/12/09 06:43:03;;;;;;;17.10;11.77;;;;;;;;;;2072119;28;20112;-75
2023/12/09 06:44:22;;;;;;;16.38;10.80;;;;;;;;;;2078781;28;20056;-73
2023/12/09 06:45:41;;;;;;;21.35;11.48;;;;;;;;;;2073644;28;20029;-74
2023/12/09 06:47:00;;;;;;;19.48;11.63;;;;;;;;;;2072958;28;20038;-75
2023/12/09 06:48:20;;;;;;;16.90;11.98;;;;;;;;;;2075943;28;20022;-75
2023/12/09 06:49:39;;;;;;;19.88;11.65;;;;;;;;;;2073964;28;20042;-75
2023/12/09 06:50:58;;;;;;;16.70;11.27;;;;;;;;;;2071280;28;20062;-75
2023/12/09 06:52:17;;;;;;;23.15;12.65;;;;;;;;;;2080757;28;20026;-75
2023/12/09 06:53:39;;;;;;;19.73;12.55;;;;;;;;;;2079583;28;20037;-75
2023/12/09 06:54:58;;;;;;;18.83;11.35;;;;;;;;;;2075133;28;20025;-75
2023/12/09 06:56:20;;;;;;;19.70;11.57;;;;;;;;;;2078137;28;20025;-75
2023/12/09 06:57:39;;;;;;;;;;;;;;;;;;2080967;28;20026;-76
2023/12/09 06:58:59;;;;;;;21.98;11.77;;;;;;;;;;2074134;28;19996;-76
2023/12/09 07:00:18;;;;;;;19.15;11.60;;;;;;;;;;2078015;28;20026;-75
2023/12/09 07:01:37;;;;;;;21.65;12.55;;;;;;;;;;2074698;28;20042;-76
2023/12/09 07:02:56;;;;;;;21.02;12.38;;;;;;;;;;2080237;28;20030;-74
2023/12/09 07:04:16;;;;;;;19.30;11.90;;;;;;;;;;2080167;28;20033;-74
2023/12/09 07:05:35;;;;;;;16.13;12.07;;;;;;;;;;2080093;28;20065;-74
2023/12/09 07:06:59;;;;;;;19.48;12.35;;;;;;;;;;2074966;28;20033;-74
2023/12/09 07:08:18;;;;;;;20.65;12.50;;;;;;;;;;2078379;28;20593;-75
2023/12/09 07:09:37;;;;;;;22.38;12.85;;;;;;;;;;2079267;28;20041;-74
2023/12/09 07:10:59;;;;;;;17.38;11.93;;;;;;;;;;2075665;28;20029;-74
2023/12/09 07:12:18;;;;;;;22.40;12.48;;;;;;;;;;2079313;28;20543;-74
2023/12/09 07:13:38;;;;;;;22.10;12.38;;;;;;;;;;2075225;28;20041;-74
2023/12/09 07:14:59;;;;;;;22.25;12.38;;;;;;;;;;2077272;28;20109;-75
2023/12/09 07:16:18;;;;;;;19.70;11.93;;;;;;;;;;2082175;28;20033;-75
2023/12/09 07:17:37;;;;;;;20.02;13.07;;;;;;;;;;2073623;28;20025;-75
2023/12/09 07:18:59;;;;;;;20.52;12.88;;;;;;;;;;2071621;28;20042;-75
2023/12/09 07:20:18;;;;;;;20.48;13.10;;;;;;;;;;2078690;28;20029;-75
2023/12/09 07:21:37;;;;;;;21.65;12.85;;;;;;;;;;2074008;28;20060;-74
2023/12/09 07:22:55;;;;;;;24.25;12.52;;;;;;;;;;2078256;28;20033;-74
2023/12/09 07:24:14;;;;;;;23.35;13.70;;;;;;;;;;2076922;28;20545;-75
2023/12/09 07:25:34;;;;;;;23.48;13.48;;;;;;;;;;2078080;28;20108;-74
2023/12/09 07:26:53;;;;;;;21.73;12.48;;;;;;;;;;2080695;28;20030;-74
2023/12/09 07:28:11;;;;;;;27.45;13.32;;;;;;;;;;2072229;28;20065;-75
2023/12/09 07:29:31;;;;;;;19.83;13.27;;;;;;;;;;2075746;28;20037;-76
2023/12/09 07:30:50;;;;;;;22.73;13.93;;;;;;;;;;2072444;28;20116;-75
2023/12/09 07:32:09;;;;;;;20.95;13.00;;;;;;;;;;2073555;28;20426;-75
2023/12/09 07:33:29;;;;;;;20.92;12.98;;;;;;;;;;2074838;28;20072;-75
2023/12/09 07:34:48;;;;;;;23.73;14.10;;;;;;;;;;2073098;28;20411;-74
2023/12/09 07:36:07;;;;;;;24.52;14.82;;;;;;;;;;2068562;28;20037;-75
2023/12/09 07:37:26;;;;;;;29.35;14.23;;;;;;;;;;2073424;28;20479;-74
2023/12/09 07:38:45;;;;;;;21.20;13.70;;;;;;;;;;2069887;28;20124;-74
2023/12/09 07:40:05;;;;;;;21.23;13.85;;;;;;;;;;2078811;28;20465;-74
2023/12/09 07:41:23;;;;;;;26.10;14.60;;;;;;;;;;2080938;28;20037;-75
2023/12/09 07:42:42;;;;;;;22.27;13.77;;;;;;;;;;2074858;28;20038;-74
2023/12/09 07:44:02;;;;;;;23.80;13.65;;;;;;;;;;2068980;28;20519;-74